This is the latest recevied weather packets stored in our database for station/object M0TJX-1. If no packets are shown the sender has not sent any weather packets the latest 10 day(s).
| Time | Temp. | Humidity | Pressure | Rain* | Wind** | Luminosity | Snow |
|---|---|---|---|---|---|---|---|
| 1787584227 | 23.89° C | 45% | 1015.8 hPa | 0 mm | - | - | - |
| 1787583327 | 23.89° C | 45% | 1015.9 hPa | 0 mm | - | - | - |
| 1787582427 | 23.89° C | 46% | 1016.4 hPa | 0 mm | - | - | - |
| 1787581527 | 23.89° C | 47% | 1016.7 hPa | 0 mm | - | - | - |
| 1787580627 | 23.33° C | 47% | 1016.9 hPa | 0 mm | - | - | - |
| 1787579727 | 23.33° C | 48% | 1017.3 hPa | 0 mm | - | - | - |
| 1787578827 | 22.22° C | 49% | 1017.4 hPa | 0 mm | - | - | - |
| 1787577927 | 22.78° C | 48% | 1017.4 hPa | 0 mm | - | - | - |
| 1787577027 | 22.22° C | 50% | 1017.5 hPa | 0 mm | - | - | - |
| 1787576127 | 22.22° C | 50% | 1017.7 hPa | 0 mm | - | - | - |
| 1787575227 | 22.78° C | 49% | 1017.7 hPa | 0 mm | - | - | - |
| 1787574327 | 21.67° C | 52% | 1018 hPa | 0 mm | - | - | - |
| 1787573427 | 21.11° C | 53% | 1018.1 hPa | 0 mm | - | - | - |
| 1787572527 | 21.11° C | 53% | 1018.4 hPa | 0 mm | - | - | - |
| 1787571627 | 21.11° C | 55% | 1018.5 hPa | 0 mm | - | - | - |
| 1787570727 | 21.11° C | 56% | 1018.8 hPa | 0 mm | - | - | - |
| 1787569827 | 20.56° C | 56% | 1018.7 hPa | 0 mm | - | - | - |
| 1787568927 | 21.11° C | 54% | 1019.1 hPa | 0 mm | - | - | - |
| 1787568027 | 21.11° C | 56% | 1019.2 hPa | 0 mm | - | - | - |
| 1787567127 | 20.56° C | 58% | 1019.4 hPa | 0 mm | - | - | - |
| 1787566227 | 20° C | 60% | 1019.5 hPa | 0 mm | - | - | - |
| 1787565327 | 19.44° C | 62% | 1019.9 hPa | 0 mm | - | - | - |
| 1787564427 | 18.89° C | 63% | 1020.2 hPa | 0 mm | - | - | - |
| 1787563527 | 18.89° C | 65% | 1020.3 hPa | 0 mm | - | - | - |
| 1787562627 | 18.33° C | 66% | 1020.5 hPa | 0 mm | - | - | - |
* Rain latest hour (hover to see other rain measurements)
** Current wind speed in m/s (hover to see current wind gust speed)